createdAt,value
2018-08-12T00:02:42.606Z,100336.02
2018-08-12T00:07:01.694Z,100339.75
2018-08-12T00:11:25.706Z,100350.53
2018-08-12T01:02:39.722Z,100344.30
2018-08-12T01:06:43.177Z,100344.39
2018-08-12T01:10:46.619Z,100331.22
2018-08-12T01:14:50.038Z,100346.05
2018-08-12T01:18:53.505Z,100348.44
2018-08-12T01:22:56.961Z,100349.45
2018-08-12T01:27:00.422Z,100355.37
2018-08-12T01:31:03.847Z,100353.69
2018-08-12T01:35:08.317Z,100345.74
2018-08-12T01:39:11.719Z,100345.92
2018-08-12T01:43:15.182Z,100345.92
2018-08-12T01:47:18.618Z,100346.45
2018-08-12T01:51:22.053Z,100348.30
2018-08-12T01:55:25.467Z,100342.56
2018-08-12T01:59:28.897Z,100338.20
2018-08-12T02:03:32.351Z,100337.47
2018-08-12T02:07:35.918Z,100329.59
2018-08-12T02:11:39.508Z,100336.36
2018-08-12T02:15:42.986Z,100335.58
2018-08-12T02:19:46.549Z,100337.05
2018-08-12T02:23:50.013Z,100343.48
2018-08-12T02:27:53.495Z,100340.08
2018-08-12T02:31:56.971Z,100340.67
2018-08-12T02:36:00.557Z,100336.75
2018-08-12T02:40:05.076Z,100329.28
2018-08-12T04:19:24.568Z,100319.37
2018-08-12T04:23:43.971Z,100322.51
2018-08-12T04:37:05.713Z,100316.84
2018-08-12T05:38:41.662Z,100349.73
2018-08-12T05:42:45.134Z,100353.41
2018-08-12T05:46:48.682Z,100348.98
2018-08-12T05:50:52.143Z,100356.47
2018-08-12T05:54:55.637Z,100353.05
2018-08-12T05:58:59.117Z,100354.97
2018-08-12T06:03:02.604Z,100353.39
2018-08-12T06:07:06.054Z,100347.23
2018-08-12T06:11:09.480Z,100347.80
2018-08-12T06:15:16.286Z,100351.44
2018-08-12T06:19:19.903Z,100347.98
2018-08-12T06:23:23.347Z,100349.88
2018-08-12T06:27:26.845Z,100343.98
2018-08-12T06:31:30.366Z,100339.70
2018-08-12T06:35:33.873Z,100327.49
2018-08-12T06:39:37.359Z,100330.25
2018-08-12T06:43:40.834Z,100325.53
2018-08-12T06:47:45.569Z,100322.81
2018-08-12T06:51:49.138Z,100326.66
2018-08-12T06:55:52.521Z,100325.06
2018-08-12T06:59:56.000Z,100316.39
2018-08-12T07:03:59.497Z,100306.56
2018-08-12T07:08:02.972Z,100302.21
2018-08-12T07:12:06.519Z,100294.33
2018-08-12T07:16:09.993Z,100293.05
2018-08-12T07:20:14.106Z,100297.84
2018-08-12T07:24:17.567Z,100291.70
2018-08-12T07:28:21.089Z,100291.44
2018-08-12T07:32:24.527Z,100291.48
2018-08-12T07:36:27.997Z,100294.30
2018-08-12T07:40:31.486Z,100293.93
2018-08-12T07:44:34.975Z,100296.45
2018-08-12T07:48:38.436Z,100286.76
2018-08-12T07:52:43.247Z,100280.56
2018-08-12T07:56:46.844Z,100281.89
2018-08-12T08:00:50.312Z,100275.50
2018-08-12T08:04:53.816Z,100272.32
2018-08-12T08:08:57.275Z,100269.95
2018-08-12T08:13:00.806Z,100262.06
2018-08-12T08:17:04.291Z,100269.11
2018-08-12T08:21:07.740Z,100267.13
2018-08-12T08:25:11.871Z,100270.27
2018-08-12T08:29:15.362Z,100268.42
2018-08-12T08:33:18.795Z,100265.32
2018-08-12T08:37:22.317Z,100260.61
2018-08-12T08:41:25.813Z,100242.60
2018-08-12T08:45:29.261Z,100242.07
2018-08-12T08:49:32.729Z,100241.17
2018-08-12T08:53:38.859Z,100238.19
2018-08-12T08:57:42.422Z,100233.19
2018-08-12T09:01:45.859Z,100230.39
2018-08-12T09:05:49.343Z,100229.73
2018-08-12T09:09:52.825Z,100229.93
2018-08-12T09:13:56.272Z,100228.58
2018-08-12T09:17:59.815Z,100231.43
2018-08-12T09:22:03.275Z,100217.29
2018-08-12T09:26:06.704Z,100216.91
2018-08-12T09:30:13.097Z,100217.33
2018-08-12T09:34:16.554Z,100212.05
2018-08-12T09:38:20.024Z,100207.75
2018-08-12T09:42:23.513Z,100202.75
2018-08-12T09:46:26.949Z,100202.70
2018-08-12T09:50:30.430Z,100195.17
2018-08-12T09:54:33.929Z,100198.38
2018-08-12T09:58:37.405Z,100190.84
2018-08-12T10:02:40.828Z,100184.44
2018-08-12T10:06:44.290Z,100177.89
2018-08-12T10:10:47.792Z,100173.64
2018-08-12T10:14:51.266Z,100159.02
2018-08-12T10:18:54.810Z,100153.50
2018-08-12T10:22:58.346Z,100150.48
2018-08-12T10:27:01.788Z,100150.39
2018-08-12T10:31:05.339Z,100141.45
2018-08-12T10:35:10.258Z,100135.44
2018-08-12T10:39:13.771Z,100134.25
2018-08-12T10:43:17.235Z,100131.91
2018-08-12T10:47:20.705Z,100131.38
2018-08-12T10:51:24.144Z,100125.19
2018-08-12T10:55:27.660Z,100117.12
2018-08-12T10:59:31.311Z,100112.25
2018-08-12T11:03:34.731Z,100111.84
2018-08-12T11:07:38.253Z,100106.02
2018-08-12T11:11:41.737Z,100106.77
2018-08-12T11:15:45.207Z,100095.88
2018-08-12T11:19:48.696Z,100094.61
2018-08-12T11:23:52.175Z,100090.67
2018-08-12T11:27:55.643Z,100081.33
2018-08-12T11:31:59.126Z,100080.69
2018-08-12T11:36:02.639Z,100071.16
2018-08-12T11:40:07.303Z,100062.70
2018-08-12T11:44:10.781Z,100063.30
2018-08-12T11:48:14.259Z,100060.92
2018-08-12T11:52:17.778Z,100052.92
2018-08-12T11:56:21.198Z,100046.87
2018-08-12T12:00:24.679Z,100032.00
2018-08-12T12:04:28.165Z,100023.30
2018-08-12T12:08:31.921Z,100024.31
2018-08-12T12:12:35.466Z,100019.52
2018-08-12T12:16:39.000Z,100004.70
2018-08-12T12:20:42.531Z,100003.34
2018-08-12T12:24:45.994Z,99998.14
2018-08-12T12:28:49.639Z,99991.63
2018-08-12T12:32:54.094Z,99980.39
2018-08-12T12:36:57.685Z,99972.63
2018-08-12T12:41:01.162Z,99970.87
2018-08-12T12:45:06.010Z,99967.43
2018-08-12T12:49:09.508Z,99962.14
2018-08-12T12:53:12.998Z,99946.58
2018-08-12T12:57:16.447Z,99947.67
2018-08-12T13:01:20.010Z,99931.77
2018-08-12T13:05:23.627Z,99930.02
2018-08-12T13:09:27.072Z,99922.36
2018-08-12T13:13:30.685Z,99923.38
2018-08-12T13:17:34.256Z,99916.59
2018-08-12T13:21:37.781Z,99901.64
2018-08-12T13:25:41.267Z,99897.02
2018-08-12T13:29:44.836Z,99895.92
2018-08-12T13:33:48.321Z,99886.92
2018-08-12T13:37:51.776Z,99879.98
2018-08-12T13:41:55.378Z,99868.38
2018-08-12T13:45:58.863Z,99863.56
2018-08-12T13:50:02.468Z,99855.91
2018-08-12T13:54:05.955Z,99847.38
2018-08-12T13:58:10.075Z,99834.06
2018-08-12T14:02:13.808Z,99829.02
2018-08-12T14:06:17.379Z,99822.11
2018-08-12T14:10:20.875Z,99812.56
2018-08-12T14:14:24.334Z,99811.44
2018-08-12T14:18:27.802Z,99809.34
2018-08-12T14:22:31.315Z,99798.09
2018-08-12T14:26:34.797Z,99782.45
2018-08-12T14:30:38.333Z,99786.52
2018-08-12T14:34:42.076Z,99776.78
2018-08-12T14:38:45.790Z,99774.53
2018-08-12T14:42:49.480Z,99763.31
2018-08-12T14:46:53.142Z,99767.51
2018-08-12T14:50:56.853Z,99763.20
2018-08-12T14:55:00.548Z,99756.38
2018-08-12T14:59:04.266Z,99751.95
2018-08-12T15:03:07.928Z,99737.99
2018-08-12T15:07:11.811Z,99738.23
2018-08-12T15:11:15.488Z,99732.33
2018-08-12T15:15:19.496Z,99722.55
2018-08-12T15:19:23.632Z,99723.17
2018-08-12T15:23:27.488Z,99720.34
2018-08-12T15:27:31.197Z,99714.27
2018-08-12T15:31:34.904Z,99714.41
2018-08-12T15:35:38.583Z,99709.95
2018-08-12T15:39:42.260Z,99692.89
2018-08-12T15:43:45.965Z,99693.12
2018-08-12T15:47:49.678Z,99686.11
2018-08-12T15:51:53.355Z,99687.70
2018-08-12T15:55:57.057Z,99676.95
2018-08-12T16:00:00.755Z,99672.53
2018-08-12T16:04:04.485Z,99668.20
2018-08-12T16:08:08.211Z,99661.17
2018-08-12T16:12:11.929Z,99662.88
2018-08-12T16:16:15.689Z,99646.95
2018-08-12T16:20:19.373Z,99646.22
2018-08-12T16:24:23.061Z,99644.63
2018-08-12T16:28:26.850Z,99636.60
2018-08-12T16:32:30.582Z,99648.55
2018-08-12T16:36:49.063Z,99642.50
2018-08-12T16:40:52.881Z,99638.20
2018-08-12T16:44:56.486Z,99642.75
2018-08-12T16:49:00.316Z,99631.39
2018-08-12T16:53:04.074Z,99627.20
2018-08-12T16:57:11.654Z,99620.77
2018-08-12T17:01:56.607Z,99623.68
2018-08-12T17:10:44.314Z,99603.67
2018-08-12T17:14:58.476Z,99611.80
2018-08-12T17:19:11.172Z,99607.95
2018-08-12T17:23:26.620Z,99607.06
2018-08-12T17:32:09.617Z,99603.22
2018-08-12T17:36:13.064Z,99605.02
2018-08-12T17:40:17.582Z,99604.51
2018-08-12T17:44:21.430Z,99598.07
2018-08-12T17:48:24.938Z,99602.00
2018-08-12T17:52:28.386Z,99606.02
2018-08-12T17:56:31.881Z,99606.72
2018-08-12T18:00:35.321Z,99603.49
2018-08-12T18:04:38.818Z,99607.64
2018-08-12T18:08:42.319Z,99605.98
2018-08-12T18:12:45.764Z,99604.22
2018-08-12T18:16:49.250Z,99605.55
2018-08-12T18:20:52.738Z,99601.53
2018-08-12T18:24:56.285Z,99604.31
2018-08-12T18:28:59.816Z,99612.02
2018-08-12T18:33:03.465Z,99605.67
2018-08-12T18:37:07.074Z,99611.27
2018-08-12T18:41:10.669Z,99611.33
2018-08-12T18:45:14.258Z,99614.70
2018-08-12T18:49:17.731Z,99614.77
2018-08-12T18:53:21.233Z,99618.08
2018-08-12T18:57:24.702Z,99615.97
2018-08-12T19:01:28.181Z,99615.81
2018-08-12T19:05:31.713Z,99621.48
2018-08-12T19:09:35.205Z,99617.69
2018-08-12T19:13:38.697Z,99619.09
2018-08-12T19:17:42.175Z,99621.34
2018-08-12T19:21:45.680Z,99613.88
2018-08-12T19:25:49.098Z,99610.93
2018-08-12T19:29:52.568Z,99609.69
2018-08-12T19:33:56.262Z,99615.88
2018-08-12T19:37:59.783Z,99612.36
2018-08-12T19:42:03.225Z,99608.44
2018-08-12T19:46:06.758Z,99609.33
2018-08-12T19:50:10.301Z,99604.72
2018-08-12T19:54:13.773Z,99601.45
2018-08-12T19:58:17.223Z,99603.20
2018-08-12T20:02:20.705Z,99598.41
2018-08-12T20:06:24.183Z,99601.30
2018-08-12T20:10:27.631Z,99596.30
2018-08-12T20:14:31.228Z,99601.22
2018-08-12T20:18:34.769Z,99598.81
2018-08-12T20:22:38.211Z,99593.83
2018-08-12T20:26:41.670Z,99593.72
2018-08-12T20:30:45.190Z,99604.73
2018-08-12T20:34:48.749Z,99603.66
2018-08-12T20:38:52.189Z,99595.27
2018-08-12T20:42:55.662Z,99601.16
2018-08-12T20:46:59.137Z,99594.34
2018-08-12T20:51:02.622Z,99584.02
2018-08-12T21:36:15.756Z,99568.67
2018-08-12T21:40:39.084Z,99564.13
2018-08-12T21:45:08.544Z,99562.78
2018-08-12T21:49:30.419Z,99559.49
2018-08-12T21:53:45.249Z,99559.27
2018-08-12T21:58:01.936Z,99556.75
